Time;durP1;ratioP1;P1;durP2;ratioP2;P2;SDS_P1;SDS_P2;PMS_P1;PMS_P2;Temp;Humidity;BMP_temperature;BMP_pressure;BME280_temperature;BME280_humidity;BME280_pressure;Samples;Min_cycle;Max_cycle;Signal;HPM_P1;HPM_P2
2023/10/18 00:01:49;;;;;;;;;;;6.10;99.90;;;;;;5117812;28;20409;-40
2023/10/18 00:04:16;;;;;;;;;;;6.00;99.90;;;;;;5116999;28;19931;-40
2023/10/18 00:06:41;;;;;;;;;;;6.10;99.90;;;;;;5117840;28;19967;-40
2023/10/18 00:11:51;;;;;;;;;;;6.10;99.90;;;;;;5118426;28;20041;-40
2023/10/18 00:14:18;;;;;;;;;;;6.10;99.90;;;;;;5117847;28;19987;-40
2023/10/18 00:16:43;;;;;;;;;;;6.20;99.90;;;;;;5117766;28;19982;-40
2023/10/18 00:19:12;;;;;;;;;;;6.20;99.90;;;;;;5117345;28;19928;-40
2023/10/18 00:21:37;;;;;;;;;;;6.30;99.90;;;;;;5117446;28;20101;-40
2023/10/18 00:24:03;;;;;;;;;;;6.30;99.90;;;;;;5117775;28;19963;-40
2023/10/18 00:26:28;;;;;;;;;;;6.30;99.90;;;;;;5117950;28;19935;-40
2023/10/18 00:28:55;;;;;;;;;;;6.30;99.90;;;;;;5117831;28;19924;-40
2023/10/18 00:31:21;;;;;;;;;;;6.30;99.90;;;;;;5117548;28;19924;-40
2023/10/18 00:33:47;;;;;;;;;;;6.30;99.90;;;;;;5117575;27;20443;-40
2023/10/18 00:36:16;;;;;;;;;;;6.30;99.90;;;;;;5117348;28;19931;-40
2023/10/18 00:38:42;;;;;;;;;;;6.30;99.90;;;;;;5117356;28;19923;-40
2023/10/18 00:41:14;;;;;;;;;;;6.30;99.90;;;;;;5117672;28;19975;-40
2023/10/18 00:43:44;;;;;;;;;;;6.30;99.90;;;;;;5117691;28;19924;-40
2023/10/18 00:46:09;;;;;;;;;;;6.30;99.90;;;;;;5116967;28;20026;-40
2023/10/18 00:48:35;;;;;;;;;;;6.30;99.90;;;;;;5116903;28;19975;-41
2023/10/18 00:51:01;;;;;;;;;;;6.30;99.90;;;;;;5115063;28;20018;-40
2023/10/18 00:53:30;;;;;;;;;;;6.30;99.90;;;;;;5117011;28;19969;-40
2023/10/18 00:55:59;;;;;;;;;;;6.20;99.90;;;;;;5117091;28;20359;-40
2023/10/18 00:58:27;;;;;;;;;;;6.20;99.90;;;;;;5117246;28;19923;-40
2023/10/18 01:00:53;;;;;;;;;;;6.10;99.90;;;;;;5116919;28;19924;-40
2023/10/18 01:03:28;;;;;;;;;;;6.10;99.90;;;;;;5116926;28;19930;-41
2023/10/18 01:05:58;;;;;;;;;;;6.10;99.90;;;;;;5116975;28;20014;-40
2023/10/18 01:08:24;;;;;;;;;;;6.10;99.90;;;;;;5116875;28;20010;-40
2023/10/18 01:10:51;;;;;;;;;;;6.00;99.90;;;;;;5116902;28;20347;-40
2023/10/18 01:13:20;;;;;;;;;;;6.00;99.90;;;;;;5116645;28;19924;-40
2023/10/18 01:15:45;;;;;;;;;;;6.00;99.90;;;;;;5116612;28;19924;-40
2023/10/18 01:18:11;;;;;;;;;;;5.90;99.90;;;;;;5115067;28;19991;-40
2023/10/18 01:20:41;;;;;;;;;;;5.90;99.90;;;;;;5116983;28;20401;-40
2023/10/18 01:23:10;;;;;;;;;;;5.90;99.90;;;;;;5116902;28;19959;-40
2023/10/18 01:25:35;;;;;;;;;;;5.90;99.90;;;;;;5116132;28;19923;-40
2023/10/18 01:28:01;;;;;;;;;;;5.90;99.90;;;;;;5116164;28;19931;-40
2023/10/18 01:30:29;;;;;;;;;;;5.90;99.90;;;;;;5115950;28;19931;-40
2023/10/18 01:32:54;;;;;;;;;;;5.90;99.90;;;;;;5116379;28;20328;-41
2023/10/18 01:35:21;;;;;;;;;;;5.90;99.90;;;;;;5116164;28;19924;-40
2023/10/18 01:37:47;;;;;;;;;;;6.00;99.90;;;;;;5116212;28;19977;-40
2023/10/18 01:40:32;;;;;;;;;;;5.90;99.90;;;;;;5115992;28;19924;-40
2023/10/18 01:42:58;;;;;;;;;;;5.90;99.90;;;;;;5115779;28;19976;-40
2023/10/18 01:45:29;;;;;;;;;;;5.90;99.90;;;;;;5115907;28;19931;-40
2023/10/18 01:47:57;;;;;;;;;;;5.90;99.90;;;;;;5115980;28;20091;-40
2023/10/18 01:50:23;;;;;;;;;;;5.90;99.90;;;;;;5115805;28;20401;-40
2023/10/18 01:52:48;;;;;;;;;;;5.90;99.90;;;;;;5115930;28;19928;-40
2023/10/18 01:55:14;;;;;;;;;;;5.90;99.90;;;;;;5115603;28;19924;-41
2023/10/18 01:57:41;;;;;;;;;;;5.90;99.90;;;;;;5114617;28;20335;-41
2023/10/18 02:00:12;;;;;;;;;;;5.80;99.90;;;;;;5115889;28;19923;-40
2023/10/18 02:02:38;;;;;;;;;;;5.80;99.90;;;;;;5115365;28;19924;-40
2023/10/18 02:05:05;;;;;;;;;;;5.80;99.90;;;;;;5115727;28;19924;-40
2023/10/18 02:07:31;;;;;;;;;;;5.80;99.90;;;;;;5115408;28;19928;-40
2023/10/18 02:09:59;;;;;;;;;;;5.70;99.90;;;;;;5115301;28;19976;-40
2023/10/18 02:12:27;;;;;;;;;;;5.70;99.90;;;;;;5115492;28;19931;-41
2023/10/18 02:14:55;;;;;;;;;;;5.70;99.90;;;;;;5115737;28;20023;-40
2023/10/18 02:17:21;;;;;;;;;;;5.70;99.90;;;;;;5115270;28;19924;-40
2023/10/18 02:19:47;;;;;;;;;;;5.60;99.90;;;;;;5115505;28;19924;-40
2023/10/18 02:22:13;;;;;;;;;;;5.60;99.90;;;;;;5115241;28;20454;-40
2023/10/18 02:24:42;;;;;;;;;;;5.50;99.90;;;;;;5115225;28;19978;-41
2023/10/18 02:27:15;;;;;;;;;;;5.50;99.90;;;;;;5115281;28;19926;-41
2023/10/18 02:29:41;;;;;;;;;;;5.50;99.90;;;;;;5115280;28;19924;-40
2023/10/18 02:32:22;;;;;;;;;;;5.50;99.90;;;;;;5115238;28;19924;-40
2023/10/18 02:34:48;;;;;;;;;;;5.50;99.90;;;;;;5114255;28;20374;-40
2023/10/18 02:37:15;;;;;;;;;;;5.50;99.90;;;;;;5114966;28;19978;-40
2023/10/18 02:39:41;;;;;;;;;;;5.50;99.90;;;;;;5114489;28;19927;-40
2023/10/18 02:42:07;;;;;;;;;;;5.40;99.90;;;;;;5115297;28;20011;-40
2023/10/18 02:44:34;;;;;;;;;;;5.50;99.90;;;;;;5115097;28;20317;-40
2023/10/18 02:47:22;;;;;;;;;;;5.50;99.90;;;;;;5114835;27;19931;-40
2023/10/18 02:49:51;;;;;;;;;;;5.40;99.90;;;;;;5115141;28;19934;-40
2023/10/18 02:52:17;;;;;;;;;;;5.40;99.90;;;;;;5115064;28;20018;-40
2023/10/18 02:54:45;;;;;;;;;;;5.40;99.90;;;;;;5114749;28;20023;-40
2023/10/18 02:57:15;;;;;;;;;;;5.40;99.90;;;;;;5095753;28;19963;-40
2023/10/18 02:59:41;;;;;;;;;;;5.40;99.90;;;;;;5114553;28;20289;-40
2023/10/18 03:02:13;;;;;;;;;;;5.40;99.90;;;;;;5114476;28;20287;-41
2023/10/18 03:04:39;;;;;;;;;;;5.40;99.90;;;;;;5114991;28;20331;-40
2023/10/18 03:07:08;;;;;;;;;;;5.40;99.90;;;;;;5114571;28;19931;-40
2023/10/18 03:12:00;;;;;;;;;;;5.50;99.90;;;;;;5114317;28;19968;-40
2023/10/18 03:17:22;;;;;;;;;;;5.40;99.90;;;;;;5114473;28;19935;-41
2023/10/18 03:19:50;;;;;;;;;;;5.50;99.90;;;;;;5113875;28;20382;-40
2023/10/18 03:22:20;;;;;;;;;;;5.50;99.90;;;;;;5114512;28;20396;-40
2023/10/18 03:24:46;;;;;;;;;;;5.50;99.90;;;;;;5114325;28;19931;-40
2023/10/18 03:27:12;;;;;;;;;;;5.40;99.90;;;;;;5114306;28;19930;-40
2023/10/18 03:29:37;;;;;;;;;;;5.40;99.90;;;;;;5114359;28;19923;-40
2023/10/18 03:32:06;;;;;;;;;;;5.40;99.90;;;;;;5114355;28;19931;-41
2023/10/18 03:34:35;;;;;;;;;;;5.40;99.90;;;;;;5114308;28;19928;-40
2023/10/18 03:37:04;;;;;;;;;;;5.40;99.90;;;;;;5113312;28;19924;-40
2023/10/18 03:39:30;;;;;;;;;;;5.40;99.90;;;;;;5114480;28;20357;-40
2023/10/18 03:41:59;;;;;;;;;;;5.30;99.90;;;;;;5114047;28;19967;-40
2023/10/18 03:44:28;;;;;;;;;;;5.30;99.90;;;;;;5114317;28;19971;-40
2023/10/18 03:47:03;;;;;;;;;;;5.30;99.90;;;;;;5114358;28;19924;-40
2023/10/18 03:51:57;;;;;;;;;;;5.30;99.90;;;;;;5114221;28;20329;-40
2023/10/18 03:54:23;;;;;;;;;;;5.30;99.90;;;;;;5114104;28;19923;-41
2023/10/18 03:56:52;;;;;;;;;;;5.30;99.90;;;;;;5114260;28;20023;-40
2023/10/18 03:59:21;;;;;;;;;;;5.30;99.90;;;;;;5114148;28;19924;-40
2023/10/18 04:02:05;;;;;;;;;;;5.30;99.90;;;;;;5114134;28;19930;-40
2023/10/18 04:04:34;;;;;;;;;;;5.30;99.90;;;;;;5114195;28;19930;-40
2023/10/18 04:07:01;;;;;;;;;;;5.30;99.90;;;;;;5113937;28;19924;-40
2023/10/18 04:09:27;;;;;;;;;;;5.30;99.90;;;;;;5114060;28;20286;-40
2023/10/18 04:11:53;;;;;;;;;;;5.30;99.90;;;;;;5114260;28;19924;-40
2023/10/18 04:14:22;;;;;;;;;;;5.30;99.90;;;;;;5114206;28;19928;-40
2023/10/18 04:16:56;;;;;;;;;;;5.30;99.90;;;;;;5113942;28;20367;-40
2023/10/18 04:19:22;;;;;;;;;;;5.30;99.90;;;;;;5113924;28;19923;-40
2023/10/18 04:21:52;;;;;;;;;;;5.30;99.90;;;;;;5114000;28;20393;-40
2023/10/18 04:24:20;;;;;;;;;;;5.20;99.90;;;;;;5114907;28;20414;-40
2023/10/18 04:26:47;;;;;;;;;;;5.30;99.90;;;;;;5117617;28;19923;-40
2023/10/18 04:29:22;;;;;;;;;;;5.30;99.90;;;;;;5116490;28;20286;-40
2023/10/18 04:31:49;;;;;;;;;;;5.20;99.90;;;;;;5116489;28;19946;-40
2023/10/18 04:34:20;;;;;;;;;;;5.20;99.90;;;;;;5117502;28;20010;-42
2023/10/18 04:36:46;;;;;;;;;;;5.30;99.90;;;;;;5117638;28;19981;-40
2023/10/18 04:39:11;;;;;;;;;;;5.30;99.90;;;;;;5117110;28;20386;-40
2023/10/18 04:41:37;;;;;;;;;;;5.20;99.90;;;;;;5117492;27;19976;-40
2023/10/18 04:44:05;;;;;;;;;;;5.20;99.90;;;;;;5117150;28;19928;-40
2023/10/18 04:46:31;;;;;;;;;;;5.20;99.90;;;;;;5117021;28;19923;-40
2023/10/18 04:51:43;;;;;;;;;;;5.10;99.90;;;;;;5117226;28;19924;-40
2023/10/18 04:54:11;;;;;;;;;;;5.20;99.90;;;;;;5117260;28;19935;-40
2023/10/18 04:56:46;;;;;;;;;;;5.20;99.90;;;;;;5116891;28;20401;-40
2023/10/18 05:04:28;;;;;;;;;;;5.20;99.90;;;;;;5117008;27;19934;-40
2023/10/18 05:06:54;;;;;;;;;;;5.20;99.90;;;;;;5116061;28;20339;-40
2023/10/18 05:09:29;;;;;;;;;;;5.20;99.90;;;;;;5116761;28;19924;-40
2023/10/18 05:12:08;;;;;;;;;;;5.20;99.90;;;;;;5116874;28;19924;-40
2023/10/18 05:14:49;;;;;;;;;;;5.20;99.90;;;;;;5116739;28;19931;-40
2023/10/18 05:17:17;;;;;;;;;;;5.20;99.90;;;;;;5116864;28;20347;-41
2023/10/18 05:19:44;;;;;;;;;;;5.20;99.90;;;;;;5116602;28;20492;-41
2023/10/18 05:22:17;;;;;;;;;;;5.10;99.90;;;;;;5116978;28;19930;-40
2023/10/18 05:24:46;;;;;;;;;;;5.20;99.90;;;;;;5116620;28;19974;-41
2023/10/18 05:27:24;;;;;;;;;;;5.20;99.90;;;;;;5115713;28;19975;-40
2023/10/18 05:29:57;;;;;;;;;;;5.20;99.90;;;;;;5116641;28;20290;-40
2023/10/18 05:33:05;;;;;;;;;;;5.10;99.90;;;;;;5116457;28;19924;-40
2023/10/18 05:35:21;;;;;;;;;;;5.10;99.90;;;;;;5110581;28;19924;-40
2023/10/18 05:37:59;;;;;;;;;;;5.10;99.90;;;;;;5115545;28;20374;-40
2023/10/18 05:43:03;;;;;;;;;;;5.10;99.90;;;;;;5116267;28;19967;-40
2023/10/18 05:45:31;;;;;;;;;;;5.10;99.90;;;;;;5116163;28;19934;-40
2023/10/18 05:47:58;;;;;;;;;;;5.10;99.90;;;;;;5116075;28;19924;-40
2023/10/18 05:50:24;;;;;;;;;;;5.10;99.90;;;;;;5116037;28;20360;-40
2023/10/18 05:52:57;;;;;;;;;;;5.10;99.90;;;;;;5115733;28;20382;-40
2023/10/18 05:55:23;;;;;;;;;;;5.10;99.90;;;;;;5115752;27;19931;-40
2023/10/18 05:57:50;;;;;;;;;;;5.10;99.90;;;;;;5115921;27;20282;-40
2023/10/18 06:00:18;;;;;;;;;;;5.10;99.90;;;;;;5115808;28;20412;-41
2023/10/18 06:02:45;;;;;;;;;;;5.10;99.90;;;;;;5115631;28;19931;-40
2023/10/18 06:05:11;;;;;;;;;;;5.10;99.90;;;;;;5115574;28;19928;-41
2023/10/18 06:07:37;;;;;;;;;;;5.10;99.90;;;;;;5115462;28;19971;-42
2023/10/18 06:10:23;;;;;;;;;;;5.10;99.90;;;;;;5115532;28;19986;-40
2023/10/18 06:12:48;;;;;;;;;;;5.10;99.90;;;;;;5115286;28;19923;-40
2023/10/18 06:15:19;;;;;;;;;;;5.10;99.90;;;;;;5114537;28;19930;-41
2023/10/18 06:20:23;;;;;;;;;;;5.10;99.90;;;;;;5115339;28;19928;-41
2023/10/18 06:22:50;;;;;;;;;;;5.10;99.90;;;;;;5115466;28;19980;-40
2023/10/18 06:25:25;;;;;;;;;;;5.10;99.90;;;;;;5115380;28;19979;-40
2023/10/18 06:27:53;;;;;;;;;;;5.10;99.90;;;;;;5115358;28;19924;-40
2023/10/18 06:30:18;;;;;;;;;;;5.10;99.90;;;;;;5115145;27;19971;-40
2023/10/18 06:32:44;;;;;;;;;;;5.10;99.90;;;;;;5114992;28;19963;-41
2023/10/18 06:35:15;;;;;;;;;;;5.10;99.90;;;;;;5115197;28;19936;-41
2023/10/18 06:37:44;;;;;;;;;;;5.10;99.90;;;;;;5115174;28;19923;-40
2023/10/18 06:40:24;;;;;;;;;;;5.10;99.90;;;;;;5115011;28;20382;-41
2023/10/18 06:42:50;;;;;;;;;;;5.20;99.90;;;;;;5115128;28;20022;-40
2023/10/18 06:45:18;;;;;;;;;;;5.20;99.90;;;;;;5114706;28;20014;-41
2023/10/18 06:47:44;;;;;;;;;;;5.20;99.90;;;;;;5114978;28;20374;-40
2023/10/18 06:50:11;;;;;;;;;;;5.20;99.90;;;;;;5114919;28;19924;-40
2023/10/18 06:52:52;;;;;;;;;;;5.20;99.90;;;;;;5115150;28;20290;-40
2023/10/18 06:55:35;;;;;;;;;;;5.20;99.90;;;;;;5114119;28;19924;-40
2023/10/18 06:58:41;;;;;;;;;;;5.20;99.90;;;;;;5114614;28;19928;-40
2023/10/18 07:01:30;;;;;;;;;;;5.30;99.90;;;;;;5114978;28;20301;-40
2023/10/18 07:03:56;;;;;;;;;;;5.30;99.90;;;;;;5114849;28;19985;-40
2023/10/18 07:06:24;;;;;;;;;;;5.30;99.90;;;;;;5114595;28;20358;-40
2023/10/18 07:08:50;;;;;;;;;;;5.40;99.90;;;;;;5114599;28;19982;-40
2023/10/18 07:11:19;;;;;;;;;;;5.40;99.90;;;;;;5114719;28;19963;-40
2023/10/18 07:13:50;;;;;;;;;;;5.40;99.90;;;;;;5114291;28;20371;-41
2023/10/18 07:16:24;;;;;;;;;;;5.40;99.90;;;;;;5114467;28;19930;-41
2023/10/18 07:19:04;;;;;;;;;;;5.50;99.90;;;;;;5114322;28;20022;-41
2023/10/18 07:21:32;;;;;;;;;;;5.50;99.90;;;;;;5114571;28;19931;-40
2023/10/18 07:24:09;;;;;;;;;;;5.60;99.90;;;;;;5114719;28;19976;-40
2023/10/18 07:26:38;;;;;;;;;;;5.60;99.90;;;;;;5113442;28;19975;-40
2023/10/18 07:29:07;;;;;;;;;;;5.60;99.90;;;;;;5114369;28;19978;-41
2023/10/18 07:31:39;;;;;;;;;;;5.70;99.90;;;;;;5113227;28;19931;-41
2023/10/18 07:34:07;;;;;;;;;;;5.70;99.90;;;;;;5114425;28;20315;-41
2023/10/18 07:36:39;;;;;;;;;;;5.70;99.90;;;;;;5113076;28;20390;-40
2023/10/18 07:39:05;;;;;;;;;;;5.80;99.90;;;;;;5114346;28;19923;-40
2023/10/18 07:41:34;;;;;;;;;;;5.80;99.90;;;;;;5114342;28;20421;-41
2023/10/18 07:44:00;;;;;;;;;;;5.90;99.90;;;;;;5114107;28;20366;-40
2023/10/18 07:46:27;;;;;;;;;;;5.90;99.90;;;;;;5113238;28;19923;-40
2023/10/18 07:48:54;;;;;;;;;;;6.00;99.90;;;;;;5113335;28;19962;-40
2023/10/18 07:51:31;;;;;;;;;;;6.10;99.90;;;;;;5113103;28;19935;-40
2023/10/18 07:53:57;;;;;;;;;;;6.00;99.90;;;;;;5114248;28;19967;-40
2023/10/18 07:56:32;;;;;;;;;;;6.10;99.90;;;;;;5113951;28;19924;-40
2023/10/18 08:01:52;;;;;;;;;;;6.30;99.90;;;;;;5118216;28;19931;-40
2023/10/18 08:04:20;;;;;;;;;;;6.30;99.90;;;;;;5116995;28;19923;-40
2023/10/18 08:06:46;;;;;;;;;;;6.30;99.90;;;;;;5117937;28;19923;-40
2023/10/18 08:09:12;;;;;;;;;;;6.40;99.90;;;;;;5118013;27;19924;-40
2023/10/18 08:11:38;;;;;;;;;;;6.40;99.90;;;;;;5117992;28;19931;-40
2023/10/18 08:14:10;;;;;;;;;;;6.50;99.90;;;;;;5117836;28;19923;-40
2023/10/18 08:16:44;;;;;;;;;;;6.50;99.90;;;;;;5117906;28;19924;-40
2023/10/18 08:19:11;;;;;;;;;;;6.60;99.90;;;;;;5117688;28;19928;-40
2023/10/18 08:21:38;;;;;;;;;;;6.60;99.90;;;;;;5117742;28;19931;-39
2023/10/18 08:24:08;;;;;;;;;;;6.70;99.90;;;;;;5117766;28;19977;-40
2023/10/18 08:26:48;;;;;;;;;;;6.80;99.90;;;;;;5117568;28;19923;-40
2023/10/18 08:29:14;;;;;;;;;;;6.80;99.90;;;;;;5117618;28;19931;-39
2023/10/18 08:31:43;;;;;;;;;;;6.90;99.90;;;;;;5117279;28;19930;-40
2023/10/18 08:34:15;;;;;;;;;;;6.90;99.90;;;;;;5117551;27;19924;-40
2023/10/18 08:36:43;;;;;;;;;;;7.00;99.90;;;;;;5117401;28;20426;-40
2023/10/18 08:39:09;;;;;;;;;;;7.00;99.90;;;;;;5116445;28;19990;-40
2023/10/18 08:41:38;;;;;;;;;;;7.10;99.90;;;;;;5117401;28;19954;-40
2023/10/18 08:44:15;;;;;;;;;;;7.10;99.90;;;;;;5117304;28;19924;-43
2023/10/18 08:46:43;;;;;;;;;;;7.20;99.90;;;;;;5117785;28;19931;-40
2023/10/18 08:49:09;;;;;;;;;;;7.20;99.90;;;;;;5116201;28;19977;-40
2023/10/18 08:51:35;;;;;;;;;;;7.30;99.90;;;;;;5117212;28;19924;-40
2023/10/18 08:54:01;;;;;;;;;;;7.30;99.90;;;;;;5117289;28;19924;-40
2023/10/18 08:56:32;;;;;;;;;;;7.30;99.90;;;;;;5116999;28;19946;-40
2023/10/18 08:58:58;;;;;;;;;;;7.30;99.90;;;;;;5117019;28;19930;-40
2023/10/18 09:01:34;;;;;;;;;;;7.40;99.90;;;;;;5117033;28;19927;-40
2023/10/18 09:03:59;;;;;;;;;;;7.40;99.90;;;;;;5117119;28;19927;-40
2023/10/18 09:06:31;;;;;;;;;;;7.40;99.90;;;;;;5116918;28;19947;-40
2023/10/18 09:09:07;;;;;;;;;;;7.40;99.90;;;;;;5116931;28;19992;-40
2023/10/18 09:11:34;;;;;;;;;;;7.50;99.90;;;;;;5115712;28;19923;-40
2023/10/18 09:14:33;;;;;;;;;;;7.60;99.90;;;;;;5116769;28;19924;-40
2023/10/18 09:17:00;;;;;;;;;;;7.60;99.90;;;;;;5114584;28;19927;-40
2023/10/18 09:19:27;;;;;;;;;;;7.60;99.90;;;;;;5116765;28;19924;-40
2023/10/18 09:22:01;;;;;;;;;;;7.70;99.90;;;;;;5116411;28;20457;-40
2023/10/18 09:24:31;;;;;;;;;;;7.70;99.90;;;;;;5117025;28;20287;-40
2023/10/18 09:26:58;;;;;;;;;;;7.80;99.90;;;;;;5116472;28;19971;-40
2023/10/18 09:29:25;;;;;;;;;;;7.80;99.90;;;;;;5116373;27;20020;-39
2023/10/18 09:31:54;;;;;;;;;;;7.80;99.90;;;;;;5116226;28;19927;-40
2023/10/18 09:34:20;;;;;;;;;;;7.90;99.90;;;;;;5116077;28;19971;-40
2023/10/18 09:36:53;;;;;;;;;;;7.90;99.90;;;;;;5116025;28;20382;-40
2023/10/18 09:39:21;;;;;;;;;;;8.00;99.90;;;;;;5116309;28;20030;-40
2023/10/18 09:41:47;;;;;;;;;;;8.00;99.90;;;;;;5116046;28;20018;-40
2023/10/18 09:44:13;;;;;;;;;;;8.10;99.90;;;;;;5116295;28;19924;-40
2023/10/18 09:46:38;;;;;;;;;;;8.20;99.90;;;;;;5116123;28;20425;-39
2023/10/18 09:49:09;;;;;;;;;;;8.20;99.90;;;;;;5114520;28;20023;-40
2023/10/18 09:51:42;;;;;;;;;;;8.20;99.90;;;;;;5116064;28;19923;-40
2023/10/18 09:54:09;;;;;;;;;;;8.20;99.90;;;;;;5115925;27;19930;-40
2023/10/18 09:56:35;;;;;;;;;;;8.30;99.90;;;;;;5097821;28;20367;-40
2023/10/18 09:59:05;;;;;;;;;;;8.30;99.90;;;;;;5115650;28;19930;-40
2023/10/18 10:01:55;;;;;;;;;;;8.40;99.90;;;;;;5115591;28;19946;-40
2023/10/18 10:04:21;;;;;;;;;;;8.40;99.90;;;;;;5115850;28;19977;-40
2023/10/18 10:06:48;;;;;;;;;;;8.50;99.90;;;;;;5115936;28;19924;-40
2023/10/18 10:09:14;;;;;;;;;;;8.60;99.90;;;;;;5115519;28;19924;-40
2023/10/18 10:11:44;;;;;;;;;;;8.60;99.90;;;;;;5115508;28;19973;-40
2023/10/18 10:14:11;;;;;;;;;;;8.70;99.90;;;;;;5114410;28;20064;-41
2023/10/18 10:16:39;;;;;;;;;;;8.70;99.90;;;;;;5115516;28;20225;-40
2023/10/18 10:19:11;;;;;;;;;;;8.80;99.90;;;;;;5115591;28;19924;-40
2023/10/18 10:21:37;;;;;;;;;;;8.90;99.90;;;;;;5115385;28;20389;-40
2023/10/18 10:24:29;;;;;;;;;;;8.90;99.90;;;;;;5115188;28;19924;-40
2023/10/18 10:26:51;;;;;;;;;;;9.00;99.90;;;;;;5115095;28;20278;-40
2023/10/18 10:31:57;;;;;;;;;;;9.10;99.90;;;;;;5115320;28;20010;-40
2023/10/18 10:34:36;;;;;;;;;;;9.10;99.90;;;;;;5115028;28;19971;-42
2023/10/18 10:37:05;;;;;;;;;;;9.20;99.90;;;;;;5115128;28;20006;-40
2023/10/18 10:39:31;;;;;;;;;;;9.20;99.90;;;;;;5115176;27;19923;-40
2023/10/18 10:42:01;;;;;;;;;;;9.20;99.90;;;;;;5115442;28;19924;-40
2023/10/18 10:44:30;;;;;;;;;;;9.30;99.90;;;;;;5114169;28;19923;-40
2023/10/18 10:47:14;;;;;;;;;;;9.30;99.90;;;;;;5114853;28;19930;-40
2023/10/18 10:49:49;;;;;;;;;;;9.30;99.90;;;;;;5114888;28;19924;-40
2023/10/18 10:52:25;;;;;;;;;;;9.30;99.90;;;;;;5115005;28;19928;-40
2023/10/18 10:55:15;;;;;;;;;;;9.40;99.90;;;;;;5114927;28;19924;-40
2023/10/18 10:57:43;;;;;;;;;;;9.40;99.90;;;;;;5114437;28;20329;-40
2023/10/18 11:00:51;;;;;;;;;;;9.50;99.90;;;;;;5114823;28;19930;-40
2023/10/18 11:03:06;;;;;;;;;;;9.50;99.90;;;;;;5109327;28;19924;-40
2023/10/18 11:05:36;;;;;;;;;;;9.60;99.90;;;;;;5114536;28;20394;-40
2023/10/18 11:08:01;;;;;;;;;;;9.60;99.90;;;;;;5113531;28;20007;-41
2023/10/18 11:10:28;;;;;;;;;;;9.60;99.90;;;;;;5114386;28;20014;-41
2023/10/18 11:12:54;;;;;;;;;;;9.70;99.90;;;;;;5114839;28;19924;-40
2023/10/18 11:15:27;;;;;;;;;;;9.70;99.90;;;;;;5114606;28;19976;-40
2023/10/18 11:18:09;;;;;;;;;;;9.70;99.90;;;;;;5114430;28;19923;-40
2023/10/18 11:20:48;;;;;;;;;;;9.70;99.90;;;;;;5113633;28;19924;-40
2023/10/18 11:23:14;;;;;;;;;;;9.70;99.90;;;;;;5114963;28;19976;-40
2023/10/18 11:25:41;;;;;;;;;;;9.80;99.90;;;;;;5114513;28;19928;-40
2023/10/18 11:28:20;;;;;;;;;;;9.80;99.90;;;;;;5113634;28;20065;-40
2023/10/18 11:30:46;;;;;;;;;;;9.80;99.90;;;;;;5114329;28;20027;-40
2023/10/18 11:33:16;;;;;;;;;;;9.90;99.90;;;;;;5113135;28;19931;-40
2023/10/18 11:35:47;;;;;;;;;;;9.90;99.90;;;;;;5117778;28;19932;-41
2023/10/18 11:38:14;;;;;;;;;;;9.90;99.90;;;;;;5118993;28;20295;-40
2023/10/18 11:40:44;;;;;;;;;;;9.90;99.90;;;;;;5118869;28;19977;-40
2023/10/18 11:43:10;;;;;;;;;;;9.90;99.90;;;;;;5118494;27;20382;-40
2023/10/18 11:45:37;;;;;;;;;;;9.90;99.90;;;;;;5118526;28;19938;-41
2023/10/18 11:48:03;;;;;;;;;;;10.00;99.90;;;;;;5118500;28;19931;-41
2023/10/18 11:50:48;;;;;;;;;;;10.00;99.90;;;;;;5118461;28;19927;-40
2023/10/18 11:53:15;;;;;;;;;;;10.00;99.90;;;;;;5118299;28;19924;-40
2023/10/18 11:55:56;;;;;;;;;;;10.00;99.90;;;;;;5118410;28;20010;-41
2023/10/18 11:58:25;;;;;;;;;;;10.00;99.90;;;;;;5118252;28;19931;-41
2023/10/18 12:01:00;;;;;;;;;;;10.00;99.90;;;;;;5117051;28;19923;-40
2023/10/18 12:03:27;;;;;;;;;;;10.00;99.90;;;;;;5118269;28;19975;-41
2023/10/18 12:05:56;;;;;;;;;;;10.00;99.90;;;;;;5117125;28;19927;-40
2023/10/18 12:08:23;;;;;;;;;;;10.00;99.90;;;;;;5117107;28;19931;-40
2023/10/18 12:10:52;;;;;;;;;;;10.00;99.90;;;;;;5117812;28;19924;-41
2023/10/18 12:13:20;;;;;;;;;;;10.10;99.90;;;;;;5117984;27;19923;-41
2023/10/18 12:15:47;;;;;;;;;;;10.10;99.90;;;;;;5117989;28;19923;-40
2023/10/18 12:18:14;;;;;;;;;;;10.10;99.90;;;;;;5117787;28;20324;-41
2023/10/18 12:20:43;;;;;;;;;;;10.10;99.90;;;;;;5117678;28;19934;-40
2023/10/18 12:23:21;;;;;;;;;;;10.10;99.90;;;;;;5116792;28;19954;-41
2023/10/18 12:25:47;;;;;;;;;;;10.10;99.90;;;;;;5118091;28;20354;-41
2023/10/18 12:28:15;;;;;;;;;;;10.10;99.90;;;;;;5117790;28;19924;-41
2023/10/18 12:30:43;;;;;;;;;;;10.10;99.90;;;;;;5116341;28;19930;-40
2023/10/18 12:33:14;;;;;;;;;;;10.10;99.90;;;;;;5117599;28;20019;-41
2023/10/18 12:35:40;;;;;;;;;;;10.20;99.90;;;;;;5117644;28;19928;-41
2023/10/18 12:38:15;;;;;;;;;;;10.20;99.90;;;;;;5116323;28;19930;-41
2023/10/18 12:40:54;;;;;;;;;;;10.20;99.90;;;;;;5117633;28;19924;-40
2023/10/18 12:43:21;;;;;;;;;;;10.30;99.90;;;;;;5117783;28;19924;-40
2023/10/18 12:45:50;;;;;;;;;;;10.30;99.90;;;;;;5117185;28;19924;-41
2023/10/18 12:48:21;;;;;;;;;;;10.30;99.90;;;;;;5117346;28;19923;-41
2023/10/18 12:50:50;;;;;;;;;;;10.30;99.90;;;;;;5117305;28;19931;-40
2023/10/18 12:53:17;;;;;;;;;;;10.30;99.90;;;;;;5116976;28;19924;-41
2023/10/18 12:55:53;;;;;;;;;;;10.40;99.90;;;;;;5117171;28;19931;-41
2023/10/18 12:58:19;;;;;;;;;;;10.40;99.90;;;;;;5117209;28;19988;-40
2023/10/18 13:00:45;;;;;;;;;;;10.40;99.90;;;;;;5116969;28;20018;-41
2023/10/18 13:05:46;;;;;;;;;;;10.40;99.90;;;;;;5117224;28;19927;-43
2023/10/18 13:08:27;;;;;;;;;;;10.40;99.90;;;;;;5117317;28;20019;-40
2023/10/18 13:13:31;;;;;;;;;;;10.50;99.90;;;;;;5117368;28;19931;-41
2023/10/18 13:16:00;;;;;;;;;;;10.50;99.90;;;;;;5116532;28;19988;-41
2023/10/18 13:18:26;;;;;;;;;;;10.40;99.90;;;;;;5116695;28;19923;-40
2023/10/18 13:20:54;;;;;;;;;;;10.50;99.90;;;;;;5115725;28;19968;-40
2023/10/18 13:23:20;;;;;;;;;;;10.40;99.90;;;;;;5116572;28;20298;-41
2023/10/18 13:25:51;;;;;;;;;;;10.50;99.90;;;;;;5116427;28;19930;-42
2023/10/18 13:28:33;;;;;;;;;;;10.40;99.90;;;;;;5116776;28;19930;-41
2023/10/18 13:31:04;;;;;;;;;;;10.50;99.90;;;;;;5116674;28;19939;-41
2023/10/18 13:33:36;;;;;;;;;;;10.50;99.90;;;;;;5116341;28;19979;-41
2023/10/18 13:36:08;;;;;;;;;;;10.50;99.90;;;;;;5116515;28;19945;-41
2023/10/18 13:38:34;;;;;;;;;;;10.50;99.90;;;;;;5115006;28;19935;-41
2023/10/18 13:41:00;;;;;;;;;;;10.50;99.90;;;;;;5116294;28;19923;-41
2023/10/18 13:43:25;;;;;;;;;;;10.40;99.90;;;;;;5116032;28;19924;-41
2023/10/18 13:45:57;;;;;;;;;;;10.40;99.90;;;;;;5116258;28;19931;-41
2023/10/18 13:48:24;;;;;;;;;;;10.50;99.90;;;;;;5115256;28;19923;-40
2023/10/18 13:50:53;;;;;;;;;;;10.50;99.90;;;;;;5115822;28;19930;-41
2023/10/18 13:53:21;;;;;;;;;;;10.50;99.90;;;;;;5116025;28;19946;-41
2023/10/18 13:55:47;;;;;;;;;;;10.50;99.90;;;;;;5116387;28;19985;-40
2023/10/18 13:58:12;;;;;;;;;;;10.50;99.90;;;;;;5115174;28;19924;-41
2023/10/18 14:00:43;;;;;;;;;;;10.50;99.90;;;;;;5115882;28;19949;-41
2023/10/18 14:03:09;;;;;;;;;;;10.40;99.90;;;;;;5115961;28;19928;-40
2023/10/18 14:05:40;;;;;;;;;;;10.50;99.90;;;;;;5115650;28;20440;-41
2023/10/18 14:08:11;;;;;;;;;;;10.50;99.90;;;;;;5115794;28;19975;-41
2023/10/18 14:10:40;;;;;;;;;;;10.50;99.90;;;;;;5115822;28;20022;-41
2023/10/18 14:13:07;;;;;;;;;;;10.50;99.90;;;;;;5115700;28;19930;-41
2023/10/18 14:15:33;;;;;;;;;;;10.40;99.90;;;;;;5115681;28;19923;-40
2023/10/18 14:18:00;;;;;;;;;;;10.50;99.90;;;;;;5097160;28;19977;-41
2023/10/18 14:20:26;;;;;;;;;;;10.50;99.90;;;;;;5115427;28;19971;-41
2023/10/18 14:22:56;;;;;;;;;;;10.50;99.90;;;;;;5115469;28;20286;-41
2023/10/18 14:25:25;;;;;;;;;;;10.50;99.90;;;;;;5115510;28;19924;-41
2023/10/18 14:27:51;;;;;;;;;;;10.50;99.90;;;;;;5115404;28;19924;-41
2023/10/18 14:30:20;;;;;;;;;;;10.50;99.90;;;;;;5115140;28;20290;-41
2023/10/18 14:32:46;;;;;;;;;;;10.50;99.90;;;;;;5115307;28;19923;-41
2023/10/18 14:35:12;;;;;;;;;;;10.40;99.90;;;;;;5115263;28;19924;-41
2023/10/18 14:37:41;;;;;;;;;;;10.40;99.90;;;;;;5115692;28;20340;-41
2023/10/18 14:40:07;;;;;;;;;;;10.40;99.90;;;;;;5115154;28;19931;-41
2023/10/18 14:42:33;;;;;;;;;;;10.40;99.90;;;;;;5115091;28;19930;-40
2023/10/18 14:44:58;;;;;;;;;;;10.40;99.90;;;;;;5114136;28;20010;-41
2023/10/18 14:47:24;;;;;;;;;;;10.40;99.90;;;;;;5114689;28;20367;-41
2023/10/18 14:49:50;;;;;;;;;;;10.30;99.90;;;;;;5114979;28;19930;-41
2023/10/18 14:52:19;;;;;;;;;;;10.30;99.90;;;;;;5115123;28;19924;-40
2023/10/18 14:54:49;;;;;;;;;;;10.30;99.90;;;;;;5114963;27;19924;-41
2023/10/18 14:57:19;;;;;;;;;;;10.30;99.90;;;;;;5114845;28;19932;-41
2023/10/18 14:59:48;;;;;;;;;;;10.30;99.90;;;;;;5114747;28;19923;-41
2023/10/18 15:02:14;;;;;;;;;;;10.20;99.90;;;;;;5114937;28;19931;-41
2023/10/18 15:04:41;;;;;;;;;;;10.20;99.90;;;;;;5114858;28;19927;-41
2023/10/18 15:07:06;;;;;;;;;;;10.20;99.90;;;;;;5114800;28;20014;-41
2023/10/18 15:09:32;;;;;;;;;;;10.20;99.90;;;;;;5113787;28;20395;-41
2023/10/18 15:11:58;;;;;;;;;;;10.10;99.90;;;;;;5114624;28;20018;-40
2023/10/18 15:14:23;;;;;;;;;;;10.10;99.90;;;;;;5114531;28;19924;-41